SJS - Big Sandy Rgnl

Pirep is a free, collaborative database of all public and private airports located within the United States. All pilots are welcome to contribute, edit, and improve any airport they have local knowledge about, no registration required.
Uploaded photos will be licensed under a CC BY-SA 4.0 license. Please only upload photos you have the rights to use.
Tags
Public
Food
METAR / TAF
Edit Tags
Camping
Lodging
Car Rental
Bicycles
Swimming
Golfing
Fishing
Hot Springs
Museum
Flying Clubs
Airpark
Upcoming Events
No upcoming events. Is anything happening here soon?
*
*
*

Where exactly on/near the airport is this event taking place?

Is there a webpage with more information for this event?

Who should be contacted for more information?

What is this event all about?

Repeat every
Description
Last updated: 2023-05-25 03:07:52 EDT
Transient Parking
Fuel Location
Landing & Tie-down Fees
Crew Car Availability
Flying Clubs
WiFi Access
Airport Statistics
Location: Prestonsburg, KY
Elevation: 1,221ft
Sectional: Cincinnati
Activation date: Apr 1986
Fuel: 100LL, A+ (prices)
Runway 03/21: 5,051ft
Access: Open to the public
Current Weather — VFR
  • Weather data is strictly informational and not for flight planning purposes.
  • METAR
    2024-05-26 08:15:00 EDT
    Ceiling Wind Temperature Dewpoint Weather Visbility
    Sky clear 160° @ 3kt 70°F 66°F N/A 10SM
    Clouds: Scattered @ 2,800ft
    Raw: KSJS 261215Z AUTO 16003KT 10SM SCT028 21/19 A2992 RMK AO2 T02120189
  • TAF
    2024-05-26 08:00:00 EDT – 2024-05-26 16:00:00 EDT
    Ceiling Wind Weather Visbility
    2,800ft 180° @ 3kt N/A 6SM
    Clouds: Broken @ 2,800ft
    Raw: KSJS 261137Z 2612/2712 18003KT P6SM BKN028 FM262000 VRB05KT P6SM VCTS SCT040CB BKN100 TEMPO 2620/2622 4SM TSRA BKN025CB FM270000 VRB05KT P6SM BKN100
  • TAF
    2024-05-26 16:00:00 EDT – 2024-05-26 20:00:00 EDT
    Ceiling Wind Weather Visbility
    10,000ft Variable Thunderstorm in vicinity 6SM
    Clouds: Scattered @ 4,000ft, Broken @ 10,000ft
    Raw: KSJS 261137Z 2612/2712 18003KT P6SM BKN028 FM262000 VRB05KT P6SM VCTS SCT040CB BKN100 TEMPO 2620/2622 4SM TSRA BKN025CB FM270000 VRB05KT P6SM BKN100
  • TAF
    2024-05-26 16:00:00 EDT – 2024-05-26 18:00:00 EDT
    Ceiling Wind Weather Visbility
    2,500ft ° @ kt Thunderstorm rain 4SM
    Clouds: Broken @ 2,500ft
    Raw: KSJS 261137Z 2612/2712 18003KT P6SM BKN028 FM262000 VRB05KT P6SM VCTS SCT040CB BKN100 TEMPO 2620/2622 4SM TSRA BKN025CB FM270000 VRB05KT P6SM BKN100
  • TAF
    2024-05-26 20:00:00 EDT – 2024-05-27 08:00:00 EDT
    Ceiling Wind Weather Visbility
    10,000ft Variable N/A 6SM
    Clouds: Broken @ 10,000ft
    Raw: KSJS 261137Z 2612/2712 18003KT P6SM BKN028 FM262000 VRB05KT P6SM VCTS SCT040CB BKN100 TEMPO 2620/2622 4SM TSRA BKN025CB FM270000 VRB05KT P6SM BKN100
Click/tap to add an annotation marker to the map
Airport Webcams
No webcams added yet.
Direct links to live image URLs will be displayed inline on this page. URLs to separate webpages will be linked to.
URL:
Direct links to live image URLs will be displayed inline on this page. URLs to separate webpages will be linked to.
URL:
Remarks
  • Birds & deer on & invof arpt.
  • For cd ctc huntington atct at 304-453-2490.
  • Actvt reil rwy 03 & 21; mirl rwy 03/21 - ctaf. papi rwy 03 & 21 opr consly.
  • Aft hr svc - 606-371-3793.
  • Papi unusbl byd 6 degs right of cntrln.
Comments
Leave a comment What was your experience like at this airport?